createdAt,value
2023-05-12T00:00:33.585Z,18.20
2023-05-12T00:03:03.879Z,1.00
2023-05-12T00:05:32.310Z,1.00
2023-05-12T00:08:01.854Z,51.20
2023-05-12T00:10:30.125Z,99.90
2023-05-12T00:12:58.478Z,39.60
2023-05-12T00:15:26.689Z,1.00
2023-05-12T00:17:54.889Z,99.90
2023-05-12T00:20:23.265Z,96.90
2023-05-12T00:22:51.375Z,99.90
2023-05-12T00:25:20.938Z,99.90
2023-05-12T00:27:49.043Z,99.90
2023-05-12T00:30:17.860Z,99.90
2023-05-12T00:32:46.353Z,99.90
2023-05-12T00:35:15.952Z,99.90
2023-05-12T00:37:44.126Z,1.00
2023-05-12T00:40:12.745Z,1.00
2023-05-12T00:42:42.325Z,1.00
2023-05-12T00:45:11.440Z,99.90
2023-05-12T00:47:39.779Z,1.00
2023-05-12T00:50:09.781Z,99.90
2023-05-12T00:52:37.931Z,99.90
2023-05-12T00:55:06.883Z,1.00
2023-05-12T00:57:35.016Z,1.00
2023-05-12T01:00:05.193Z,1.00
2023-05-12T01:02:33.468Z,2.00
2023-05-12T01:05:02.002Z,1.00
2023-05-12T01:07:34.206Z,99.90
2023-05-12T01:10:02.371Z,99.90
2023-05-12T01:12:32.265Z,99.90
2023-05-12T01:15:01.138Z,96.90
2023-05-12T01:17:33.894Z,99.90
2023-05-12T01:20:04.678Z,99.90
2023-05-12T01:22:33.989Z,99.90
2023-05-12T01:25:04.222Z,99.90
2023-05-12T01:27:35.396Z,99.90
2023-05-12T01:30:06.008Z,1.00
2023-05-12T01:32:34.380Z,1.00
2023-05-12T01:35:03.134Z,1.00
2023-05-12T01:37:31.303Z,1.00
2023-05-12T01:39:59.466Z,1.00
2023-05-12T01:42:27.812Z,1.00
2023-05-12T01:44:57.301Z,1.00
2023-05-12T01:47:25.528Z,99.90
2023-05-12T01:49:54.509Z,99.90
2023-05-12T01:52:22.692Z,99.90
2023-05-12T01:54:51.483Z,99.90
2023-05-12T01:57:19.660Z,99.90
2023-05-12T01:59:47.827Z,99.90
2023-05-12T02:02:17.435Z,99.90
2023-05-12T02:04:45.659Z,1.00
2023-05-12T02:07:15.774Z,1.00
2023-05-12T02:09:43.939Z,1.00
2023-05-12T02:12:12.079Z,26.70
2023-05-12T02:14:40.245Z,92.10
2023-05-12T02:17:08.748Z,99.90
2023-05-12T02:19:38.360Z,99.90
2023-05-12T02:22:06.556Z,99.90
2023-05-12T02:24:34.732Z,99.90
2023-05-12T02:27:02.891Z,1.00
2023-05-12T02:29:31.074Z,99.90
2023-05-12T02:31:59.827Z,99.90
2023-05-12T02:34:28.048Z,99.90
2023-05-12T02:36:57.586Z,99.90
2023-05-12T02:39:25.685Z,99.90
2023-05-12T02:41:53.845Z,1.00
2023-05-12T02:44:22.500Z,1.00
2023-05-12T02:46:50.794Z,1.00
2023-05-12T02:49:18.918Z,2.80
2023-05-12T02:51:48.525Z,54.20
2023-05-12T02:54:18.175Z,99.90
2023-05-12T02:56:46.312Z,99.90
2023-05-12T02:59:14.463Z,1.00
2023-05-12T03:01:42.667Z,1.00
2023-05-12T03:04:10.899Z,99.90
2023-05-12T03:06:39.074Z,1.00
2023-05-12T03:09:07.199Z,99.90
2023-05-12T03:11:36.779Z,73.60
2023-05-12T03:14:04.879Z,1.00
2023-05-12T03:16:33.003Z,99.90
2023-05-12T03:19:01.330Z,1.00
2023-05-12T03:21:29.849Z,1.00
2023-05-12T03:23:58.948Z,1.00
2023-05-12T03:26:27.068Z,99.90
2023-05-12T03:28:56.844Z,1.00
2023-05-12T03:31:25.041Z,32.70
2023-05-12T03:33:53.198Z,1.00
2023-05-12T03:36:21.294Z,32.50
2023-05-12T03:38:49.571Z,99.90
2023-05-12T03:41:18.443Z,99.90
2023-05-12T03:43:46.681Z,1.00
2023-05-12T03:46:16.436Z,1.00
2023-05-12T03:48:44.608Z,1.00
2023-05-12T03:51:12.717Z,99.90
2023-05-12T03:53:45.139Z,1.00
2023-05-12T03:56:13.418Z,1.00
2023-05-12T03:58:41.592Z,1.00
2023-05-12T04:01:09.858Z,32.20
2023-05-12T04:03:41.325Z,99.90
2023-05-12T04:06:10.047Z,1.00
2023-05-12T04:08:41.068Z,1.00
2023-05-12T04:11:10.766Z,32.20
2023-05-12T04:13:38.930Z,99.90
2023-05-12T04:16:07.852Z,99.90
2023-05-12T04:18:36.934Z,32.60
2023-05-12T04:21:06.736Z,99.90
2023-05-12T04:23:35.050Z,42.10
2023-05-12T04:26:05.333Z,33.30
2023-05-12T04:28:33.790Z,31.00
2023-05-12T04:31:04.737Z,33.40
2023-05-12T04:33:32.945Z,64.00
2023-05-12T04:36:01.468Z,99.90
2023-05-12T04:38:31.141Z,99.90
2023-05-12T04:41:00.117Z,34.00
2023-05-12T04:46:00.270Z,99.90
2023-05-12T04:48:28.704Z,99.90
2023-05-12T04:50:56.968Z,1.00
2023-05-12T04:53:25.100Z,1.00
2023-05-12T04:55:56.460Z,99.90
2023-05-12T04:58:24.610Z,99.90
2023-05-12T05:00:53.021Z,1.00
2023-05-12T05:03:21.352Z,99.90
2023-05-12T05:05:50.114Z,99.90
2023-05-12T05:08:18.486Z,99.90
2023-05-12T05:10:46.729Z,99.90
2023-05-12T05:13:16.600Z,1.00
2023-05-12T05:15:51.441Z,1.00
2023-05-12T05:18:22.380Z,99.90
2023-05-12T05:20:57.822Z,99.90
2023-05-12T05:23:26.922Z,1.00
2023-05-12T05:25:55.122Z,99.90
2023-05-12T05:28:24.814Z,99.90
2023-05-12T05:30:52.916Z,99.90
2023-05-12T05:33:21.307Z,1.00
2023-05-12T05:35:49.713Z,99.90
2023-05-12T05:38:17.911Z,99.90
2023-05-12T05:40:53.145Z,99.90
2023-05-12T05:43:24.317Z,37.50
2023-05-12T05:45:52.505Z,99.90
2023-05-12T05:48:20.902Z,64.40
2023-05-12T05:50:49.455Z,1.00
2023-05-12T05:53:18.563Z,99.90
2023-05-12T05:55:46.786Z,99.90
2023-05-12T05:58:15.261Z,1.00
2023-05-12T06:00:45.150Z,1.00
2023-05-12T06:03:13.610Z,99.90
2023-05-12T06:05:42.252Z,99.90
2023-05-12T06:08:13.432Z,1.00
2023-05-12T06:10:42.207Z,1.00
2023-05-12T06:13:10.304Z,1.00
2023-05-12T06:15:38.616Z,1.00
2023-05-12T06:18:08.222Z,1.00
2023-05-12T06:20:36.534Z,99.90
2023-05-12T06:23:05.616Z,1.00
2023-05-12T06:25:34.292Z,99.90
2023-05-12T06:28:02.405Z,99.90
2023-05-12T06:30:30.753Z,99.90
2023-05-12T06:32:59.605Z,1.00
2023-05-12T06:35:29.221Z,1.00
2023-05-12T06:37:57.332Z,1.00
2023-05-12T06:40:25.623Z,1.00
2023-05-12T06:42:53.720Z,1.00
2023-05-12T06:45:23.723Z,1.00
2023-05-12T06:47:51.997Z,1.00
2023-05-12T06:50:20.405Z,99.90
2023-05-12T06:52:50.527Z,99.90
2023-05-12T06:55:20.642Z,99.90
2023-05-12T06:57:51.730Z,99.90
2023-05-12T07:00:20.937Z,99.90
2023-05-12T07:02:49.245Z,99.90
2023-05-12T07:05:18.946Z,99.90
2023-05-12T07:07:47.501Z,99.90
2023-05-12T07:10:17.057Z,99.90
2023-05-12T07:12:45.294Z,99.90
2023-05-12T07:15:13.684Z,99.90
2023-05-12T07:17:42.320Z,99.90
2023-05-12T07:20:10.944Z,8.70
2023-05-12T07:22:39.279Z,1.00
2023-05-12T07:25:08.711Z,99.90
2023-05-12T07:27:38.330Z,99.90
2023-05-12T07:30:08.118Z,99.90
2023-05-12T07:32:36.534Z,99.90
2023-05-12T07:35:05.221Z,99.90
2023-05-12T07:37:33.410Z,1.00
2023-05-12T07:40:01.573Z,1.00
2023-05-12T07:42:30.043Z,1.00
2023-05-12T07:44:59.736Z,1.00
2023-05-12T07:47:28.803Z,99.90
2023-05-12T07:50:01.046Z,1.00
2023-05-12T07:52:29.087Z,1.00
2023-05-12T07:54:58.230Z,1.00
2023-05-12T07:57:26.384Z,99.90
2023-05-12T07:59:54.490Z,99.90
2023-05-12T08:02:24.083Z,99.90
2023-05-12T08:04:52.427Z,1.00
2023-05-12T08:07:20.595Z,1.00
2023-05-12T08:09:48.839Z,50.60
2023-05-12T08:12:17.036Z,99.90
2023-05-12T08:14:45.304Z,99.90
2023-05-12T08:17:13.719Z,99.40
2023-05-12T08:19:43.415Z,99.90
2023-05-12T08:22:11.949Z,1.00
2023-05-12T08:24:40.297Z,24.60
2023-05-12T08:27:08.543Z,1.00
2023-05-12T08:29:36.724Z,99.90
2023-05-12T08:32:05.322Z,99.90
2023-05-12T08:34:33.839Z,99.90
2023-05-12T08:37:03.506Z,99.90
2023-05-12T08:39:32.340Z,99.90
2023-05-12T08:42:10.817Z,99.90
2023-05-12T08:44:39.628Z,99.90
2023-05-12T08:47:08.513Z,99.90
2023-05-12T08:49:38.892Z,99.90
2023-05-12T08:52:10.242Z,99.90
2023-05-12T08:54:48.930Z,99.90
2023-05-12T08:57:21.740Z,99.90
2023-05-12T08:59:50.970Z,99.90
2023-05-12T09:02:22.907Z,45.80
2023-05-12T09:04:51.577Z,14.90
2023-05-12T09:07:22.601Z,1.00
2023-05-12T09:09:55.726Z,91.00
2023-05-12T09:12:26.014Z,99.90
2023-05-12T09:15:07.763Z,44.50
2023-05-12T09:17:36.558Z,93.80
2023-05-12T09:20:06.727Z,57.20
2023-05-12T09:22:37.424Z,1.00
2023-05-12T09:25:18.837Z,1.00
2023-05-12T09:27:49.282Z,26.70
2023-05-12T09:30:17.811Z,9.60
2023-05-12T09:32:46.253Z,1.00
2023-05-12T09:35:14.495Z,1.00
2023-05-12T09:37:44.370Z,4.50
2023-05-12T09:40:13.973Z,19.50
2023-05-12T09:42:44.559Z,1.00
2023-05-12T09:45:15.839Z,1.00
2023-05-12T09:47:45.420Z,1.00
2023-05-12T09:50:13.975Z,33.90
2023-05-12T09:52:43.608Z,91.60
2023-05-12T09:55:14.067Z,43.30
2023-05-12T09:57:43.802Z,19.90
2023-05-12T10:00:34.414Z,1.00
2023-05-12T10:03:11.331Z,1.00
2023-05-12T10:05:45.275Z,24.80
2023-05-12T10:08:18.706Z,1.00
2023-05-12T10:10:50.653Z,1.00
2023-05-12T10:13:19.189Z,1.00
2023-05-12T10:15:49.467Z,1.00
2023-05-12T10:18:18.316Z,1.00
2023-05-12T10:20:47.160Z,1.00
2023-05-12T10:23:19.616Z,1.00
2023-05-12T10:25:48.630Z,1.00
2023-05-12T10:28:16.864Z,1.00
2023-05-12T10:30:45.958Z,1.00
2023-05-12T10:33:15.886Z,1.00
2023-05-12T10:35:46.224Z,1.00
2023-05-12T10:38:19.800Z,1.00
2023-05-12T10:40:55.905Z,1.00
2023-05-12T10:43:25.031Z,1.00
2023-05-12T10:46:17.529Z,1.00
2023-05-12T10:48:55.007Z,1.00
2023-05-12T10:51:25.023Z,1.00
2023-05-12T10:53:58.004Z,1.00
2023-05-12T10:56:28.386Z,1.00
2023-05-12T10:59:14.419Z,1.00
2023-05-12T11:01:44.571Z,1.00
2023-05-12T11:04:15.270Z,1.00
2023-05-12T11:06:45.532Z,1.00
2023-05-12T11:09:17.787Z,1.00
2023-05-12T11:11:47.619Z,1.00
2023-05-12T11:14:16.492Z,1.00
2023-05-12T11:16:45.200Z,1.00
2023-05-12T11:19:13.873Z,1.00
2023-05-12T11:21:42.596Z,1.00
2023-05-12T11:24:14.669Z,1.00
2023-05-12T11:26:44.514Z,1.00
2023-05-12T11:29:12.771Z,1.00
2023-05-12T11:31:41.617Z,1.00
2023-05-12T11:34:13.196Z,1.00
2023-05-12T11:36:43.742Z,1.00
2023-05-12T11:39:16.718Z,1.00
2023-05-12T11:41:46.644Z,1.00
2023-05-12T11:44:16.438Z,1.00
2023-05-12T11:46:56.008Z,1.00
2023-05-12T11:49:24.269Z,1.00
2023-05-12T11:51:54.304Z,1.00
2023-05-12T11:54:23.445Z,1.00
2023-05-12T11:56:53.975Z,1.00
2023-05-12T11:59:32.729Z,1.00
2023-05-12T12:02:04.084Z,1.00
2023-05-12T12:04:34.432Z,1.00
2023-05-12T12:07:02.812Z,1.00
2023-05-12T12:09:36.410Z,1.00
2023-05-12T12:12:08.022Z,58.70
2023-05-12T12:14:38.046Z,99.90
2023-05-12T12:17:06.593Z,99.90
2023-05-12T12:19:34.776Z,1.00
2023-05-12T12:22:03.010Z,1.00
2023-05-12T12:24:31.118Z,1.00
2023-05-12T12:26:59.395Z,25.10
2023-05-12T12:29:28.891Z,1.00
2023-05-12T12:31:57.525Z,1.00
2023-05-12T12:34:25.790Z,44.30
2023-05-12T12:36:54.020Z,99.90
2023-05-12T12:39:23.320Z,99.90
2023-05-12T12:41:51.521Z,99.90
2023-05-12T12:44:19.649Z,1.00
2023-05-12T12:46:49.246Z,1.00
2023-05-12T12:49:17.382Z,73.60
2023-05-12T12:51:46.625Z,1.00
2023-05-12T12:54:15.777Z,1.00
2023-05-12T12:56:45.179Z,12.50
2023-05-12T12:59:13.415Z,1.00
2023-05-12T13:01:41.655Z,1.00
2023-05-12T13:04:11.299Z,27.10
2023-05-12T13:06:40.061Z,1.00
2023-05-12T13:09:09.215Z,1.00
2023-05-12T13:11:37.496Z,1.00
2023-05-12T13:14:05.768Z,1.00
2023-05-12T13:16:33.960Z,1.00
2023-05-12T13:19:02.245Z,1.00
2023-05-12T13:21:31.769Z,99.90
2023-05-12T13:24:00.071Z,99.90
2023-05-12T13:26:28.297Z,99.90
2023-05-12T13:28:56.395Z,99.90
2023-05-12T13:31:24.602Z,99.90
2023-05-12T13:33:53.626Z,99.90
2023-05-12T13:36:21.839Z,99.90
2023-05-12T13:38:51.954Z,99.90
2023-05-12T13:41:20.107Z,22.30
2023-05-12T13:43:48.224Z,1.00
2023-05-12T13:46:16.451Z,1.00
2023-05-12T13:48:44.708Z,1.00
2023-05-12T13:51:12.936Z,1.00
2023-05-12T13:53:41.677Z,1.00
2023-05-12T13:56:11.496Z,1.00
2023-05-12T13:58:39.691Z,1.00
2023-05-12T14:01:08.744Z,1.00
2023-05-12T14:03:37.533Z,1.00
2023-05-12T14:06:05.981Z,1.00
2023-05-12T14:08:34.338Z,1.00
2023-05-12T14:11:02.546Z,1.00
2023-05-12T14:13:32.244Z,1.00
2023-05-12T14:16:00.571Z,1.00
2023-05-12T14:18:28.841Z,1.00
2023-05-12T14:20:57.781Z,1.00
2023-05-12T14:23:26.011Z,1.00
2023-05-12T14:25:55.539Z,1.00
2023-05-12T14:28:24.353Z,1.00
2023-05-12T14:30:54.261Z,1.00
2023-05-12T14:33:22.539Z,1.00
2023-05-12T14:36:03.205Z,1.00
2023-05-12T14:38:35.386Z,1.00
2023-05-12T14:41:04.085Z,1.00
2023-05-12T14:43:32.444Z,99.90
2023-05-12T14:46:02.406Z,99.90
2023-05-12T14:48:30.681Z,99.90
2023-05-12T14:50:59.223Z,75.80
2023-05-12T14:53:27.422Z,99.90
2023-05-12T14:55:55.583Z,90.50
2023-05-12T14:58:24.379Z,99.90
2023-05-12T15:00:53.341Z,61.40
2023-05-12T15:03:23.016Z,25.60
2023-05-12T15:08:22.593Z,41.40
2023-05-12T15:10:50.803Z,32.70
2023-05-12T15:13:20.559Z,57.60
2023-05-12T15:15:50.268Z,55.60
2023-05-12T15:18:19.921Z,32.50
2023-05-12T15:20:49.399Z,6.70
2023-05-12T15:23:17.607Z,30.30
2023-05-12T15:25:45.816Z,25.80
2023-05-12T15:28:13.994Z,40.50
2023-05-12T15:30:42.203Z,55.40
2023-05-12T15:33:10.578Z,29.00
2023-05-12T15:35:41.686Z,53.50
2023-05-12T15:38:11.319Z,99.90
2023-05-12T15:40:57.786Z,99.90
2023-05-12T15:47:46.574Z,1.00
2023-05-12T15:50:19.751Z,1.00
2023-05-12T15:56:21.404Z,1.00
2023-05-12T15:58:49.642Z,1.00
2023-05-12T16:01:17.791Z,1.00
2023-05-12T16:03:46.149Z,1.00
2023-05-12T16:06:14.347Z,1.00
2023-05-12T16:08:42.594Z,1.00
2023-05-12T16:11:10.765Z,1.00
2023-05-12T16:13:41.013Z,1.00
2023-05-12T16:16:09.362Z,1.00
2023-05-12T16:18:37.912Z,1.00
2023-05-12T16:21:06.079Z,1.00
2023-05-12T16:23:34.291Z,99.90
2023-05-12T16:26:02.462Z,99.90
2023-05-12T16:28:32.041Z,99.90
2023-05-12T16:31:01.852Z,99.90
2023-05-12T16:33:30.154Z,99.90
2023-05-12T16:35:58.598Z,99.90
2023-05-12T16:38:26.757Z,99.90
2023-05-12T16:40:55.444Z,99.90
2023-05-12T16:43:23.595Z,74.50
2023-05-12T16:46:02.189Z,10.90
2023-05-12T16:48:34.409Z,23.00
2023-05-12T16:51:03.733Z,14.00
2023-05-12T16:53:32.344Z,1.00
2023-05-12T16:56:01.126Z,1.00
2023-05-12T16:58:31.977Z,1.00
2023-05-12T17:01:02.166Z,1.00
2023-05-12T17:03:31.768Z,1.00
2023-05-12T17:06:00.298Z,1.00
2023-05-12T17:08:28.470Z,1.00
2023-05-12T17:10:56.625Z,1.00
2023-05-12T17:13:24.874Z,1.00
2023-05-12T17:15:53.353Z,1.00
2023-05-12T17:18:24.906Z,1.00
2023-05-12T17:20:53.633Z,1.00
2023-05-12T17:23:21.880Z,1.00
2023-05-12T17:25:50.252Z,1.00
2023-05-12T17:28:18.442Z,1.00
2023-05-12T17:30:46.633Z,1.00
2023-05-12T17:33:15.660Z,1.00
2023-05-12T17:35:53.980Z,1.00
2023-05-12T17:38:32.261Z,1.00
2023-05-12T17:41:00.499Z,1.00
2023-05-12T17:43:29.663Z,1.00
2023-05-12T17:45:58.047Z,1.00
2023-05-12T17:48:26.547Z,1.00
2023-05-12T17:50:56.352Z,1.00
2023-05-12T17:53:24.670Z,1.00
2023-05-12T17:55:52.797Z,1.00
2023-05-12T17:58:21.126Z,1.00
2023-05-12T18:00:49.317Z,1.00
2023-05-12T18:03:17.683Z,1.00
2023-05-12T18:05:45.968Z,1.00
2023-05-12T18:08:15.408Z,1.00
2023-05-12T18:10:43.846Z,1.00
2023-05-12T18:13:12.129Z,1.00
2023-05-12T18:15:40.248Z,1.00
2023-05-12T18:18:08.706Z,1.00
2023-05-12T18:20:36.927Z,1.00
2023-05-12T18:23:05.071Z,1.00
2023-05-12T18:25:34.552Z,1.00
2023-05-12T18:28:02.771Z,1.00
2023-05-12T18:30:30.998Z,1.00
2023-05-12T18:32:59.258Z,1.00
2023-05-12T18:35:27.507Z,1.00
2023-05-12T18:37:55.659Z,1.00
2023-05-12T18:40:23.744Z,1.00
2023-05-12T18:42:53.340Z,1.00
2023-05-12T18:45:22.860Z,11.40
2023-05-12T18:47:51.756Z,18.70
2023-05-12T18:50:20.154Z,25.10
2023-05-12T18:52:48.276Z,99.90
2023-05-12T18:55:16.468Z,99.90
2023-05-12T18:57:44.711Z,99.90
2023-05-12T19:00:15.151Z,99.90
2023-05-12T19:02:43.564Z,99.90
2023-05-12T19:05:11.941Z,99.90
2023-05-12T19:07:40.142Z,99.90
2023-05-12T19:10:10.007Z,99.90
2023-05-12T19:12:38.095Z,99.90
2023-05-12T19:15:07.076Z,99.90
2023-05-12T19:17:36.631Z,99.90
2023-05-12T19:20:05.619Z,99.90
2023-05-12T19:22:34.140Z,99.90
2023-05-12T19:25:02.474Z,99.90
2023-05-12T19:27:30.936Z,99.90
2023-05-12T19:29:59.196Z,99.90
2023-05-12T19:32:27.472Z,99.90
2023-05-12T19:34:57.289Z,99.90
2023-05-12T19:37:27.354Z,99.90
2023-05-12T19:39:55.584Z,99.90
2023-05-12T19:42:23.811Z,99.90
2023-05-12T19:44:52.078Z,99.90
2023-05-12T19:47:25.073Z,99.90
2023-05-12T19:49:54.988Z,99.90
2023-05-12T19:52:25.833Z,99.90
2023-05-12T19:54:54.764Z,1.00
2023-05-12T19:57:23.238Z,1.00
2023-05-12T19:59:51.452Z,1.00
2023-05-12T20:02:19.789Z,1.00
2023-05-12T20:04:48.181Z,1.00
2023-05-12T20:07:16.481Z,1.00
2023-05-12T20:09:46.037Z,1.00
2023-05-12T20:12:14.291Z,1.00
2023-05-12T20:14:45.971Z,1.00
2023-05-12T20:17:14.710Z,27.30
2023-05-12T20:19:48.797Z,1.00
2023-05-12T20:22:33.910Z,12.60
2023-05-12T20:25:04.620Z,1.00
2023-05-12T20:27:46.236Z,1.00
2023-05-12T20:30:55.513Z,80.30
2023-05-12T20:33:36.762Z,99.90
2023-05-12T20:36:31.535Z,99.90
2023-05-12T20:39:17.108Z,99.90
2023-05-12T20:41:46.959Z,99.90
2023-05-12T20:44:23.803Z,99.90
2023-05-12T20:46:58.424Z,41.00
2023-05-12T20:49:32.423Z,16.60
2023-05-12T20:54:59.289Z,73.30
2023-05-12T20:57:29.617Z,20.30
2023-05-12T21:00:18.446Z,18.10
2023-05-12T21:02:49.120Z,1.00
2023-05-12T21:05:43.572Z,1.00
2023-05-12T21:08:12.158Z,1.00
2023-05-12T21:10:40.445Z,1.00
2023-05-12T21:13:10.132Z,1.00
2023-05-12T21:15:41.350Z,1.00
2023-05-12T21:18:09.963Z,1.00
2023-05-12T21:20:38.268Z,1.00
2023-05-12T21:23:09.351Z,1.00
2023-05-12T21:26:12.754Z,1.00
2023-05-12T21:29:05.987Z,1.00
2023-05-12T21:31:34.261Z,1.00
2023-05-12T21:34:02.761Z,1.00
2023-05-12T21:37:00.992Z,1.00
2023-05-12T21:39:29.281Z,2.60
2023-05-12T21:41:57.424Z,4.40
2023-05-12T21:44:26.912Z,56.90
2023-05-12T21:46:55.084Z,32.70
2023-05-12T21:49:23.193Z,97.20
2023-05-12T21:51:51.315Z,99.90
2023-05-12T21:54:19.406Z,99.90
2023-05-12T21:56:47.548Z,99.90
2023-05-12T21:59:15.628Z,99.90
2023-05-12T22:01:45.274Z,99.90
2023-05-12T22:04:13.378Z,99.90
2023-05-12T22:06:41.560Z,99.90
2023-05-12T22:09:09.733Z,99.90
2023-05-12T22:11:37.828Z,99.90
2023-05-12T22:14:06.273Z,38.50
2023-05-12T22:16:41.250Z,55.80
2023-05-12T22:19:12.096Z,1.00
2023-05-12T22:21:40.296Z,1.00
2023-05-12T22:24:09.146Z,1.00
2023-05-12T22:26:37.317Z,1.00
2023-05-12T22:29:05.508Z,1.00
2023-05-12T22:31:33.654Z,1.00
2023-05-12T22:34:01.845Z,1.00
2023-05-12T22:36:31.661Z,1.00
2023-05-12T22:38:59.900Z,1.00
2023-05-12T22:41:28.081Z,17.80
2023-05-12T22:43:56.206Z,10.70
2023-05-12T22:46:24.270Z,50.50
2023-05-12T22:48:52.696Z,1.00
2023-05-12T22:51:20.904Z,99.90
2023-05-12T22:53:50.684Z,98.60
2023-05-12T22:56:18.848Z,99.90
2023-05-12T22:58:47.265Z,99.90
2023-05-12T23:01:15.382Z,99.90
2023-05-12T23:03:43.729Z,99.90
2023-05-12T23:06:11.968Z,99.90
2023-05-12T23:08:40.187Z,99.90
2023-05-12T23:11:11.881Z,99.90
2023-05-12T23:13:40.176Z,99.90
2023-05-12T23:16:09.079Z,99.90
2023-05-12T23:18:37.358Z,99.90
2023-05-12T23:21:05.615Z,99.90
2023-05-12T23:23:34.185Z,99.90
2023-05-12T23:26:02.409Z,1.00
2023-05-12T23:28:31.985Z,1.00
2023-05-12T23:31:00.188Z,1.00
2023-05-12T23:33:28.415Z,1.00
2023-05-12T23:35:56.728Z,1.00
2023-05-12T23:38:24.937Z,1.00
2023-05-12T23:40:53.046Z,1.00
2023-05-12T23:43:21.241Z,1.00
2023-05-12T23:45:50.882Z,38.90
2023-05-12T23:48:19.159Z,1.00
2023-05-12T23:50:47.370Z,1.00
2023-05-12T23:53:15.970Z,25.00
2023-05-12T23:55:44.197Z,1.00
2023-05-12T23:58:12.357Z,76.80
